Time;durP1;ratioP1;P1;durP2;ratioP2;P2;SDS_P1;SDS_P2;PMS_P1;PMS_P2;Temp;Humidity;BMP_temperature;BMP_pressure;BME280_temperature;BME280_humidity;BME280_pressure;Samples;Min_cycle;Max_cycle;Signal;HPM_P1;HPM_P2
2023/08/24 00:01:08;;;;;;;;;18.00;16.00;;;;;24.81;43.67;101037.48;109971;1266;21642;-82
2023/08/24 00:03:34;;;;;;;;;19.33;18.00;;;;;24.80;43.73;101038.05;110026;1265;20829;-81
2023/08/24 00:06:00;;;;;;;;;18.00;16.00;;;;;24.80;43.69;101036.07;109969;1251;20812;-81
2023/08/24 00:08:27;;;;;;;;;20.00;18.50;;;;;24.81;43.70;101037.06;110010;1251;21878;-81
2023/08/24 00:10:53;;;;;;;;;16.00;15.00;;;;;24.78;43.52;101037.53;109995;1266;21498;-81
2023/08/24 00:13:19;;;;;;;;;18.00;15.00;;;;;24.78;43.88;101039.93;110007;1259;21078;-81
2023/08/24 00:15:45;;;;;;;;;18.00;18.00;;;;;24.76;43.57;101037.16;109975;1251;22752;-79
2023/08/24 00:18:11;;;;;;;;;15.00;15.00;;;;;24.77;43.70;101033.98;109915;1251;19944;-80
2023/08/24 00:20:37;;;;;;;;;15.00;14.00;;;;;24.75;43.69;101036.41;109923;1265;19363;-80
2023/08/24 00:23:03;;;;;;;;;16.00;15.00;;;;;24.73;43.82;101035.17;109957;1258;21491;-81
2023/08/24 00:25:29;;;;;;;;;15.00;14.00;;;;;24.72;43.65;101035.61;109962;1266;19960;-80
2023/08/24 00:27:55;;;;;;;;;19.00;18.00;;;;;24.71;43.75;101034.26;109994;1260;19578;-80
2023/08/24 00:30:21;;;;;;;;;14.00;14.00;;;;;24.71;43.61;101034.64;110007;1251;21541;-80
2023/08/24 00:32:47;;;;;;;;;16.00;14.00;;;;;24.71;43.48;101032.78;109983;1251;23781;-81
2023/08/24 00:35:13;;;;;;;;;19.50;18.00;;;;;24.70;43.52;101032.95;110033;1251;23825;-81
2023/08/24 00:37:39;;;;;;;;;22.00;20.00;;;;;24.67;43.56;101027.61;110027;1266;22154;-81
2023/08/24 00:40:09;;;;;;;;;25.50;24.00;;;;;24.63;43.69;101027.54;109987;1250;19320;-81
2023/08/24 00:42:36;;;;;;;;;20.00;16.00;;;;;24.63;43.62;101037.02;110012;1250;19516;-82
2023/08/24 00:45:02;;;;;;;;;22.00;20.00;;;;;24.61;43.75;101043.02;109988;1265;23066;-80
2023/08/24 00:47:29;;;;;;;;;24.00;24.00;;;;;24.60;43.94;101043.73;110002;1251;21178;-82
2023/08/24 00:49:55;;;;;;;;;28.00;21.00;;;;;24.61;44.00;101047.78;110019;1251;20864;-81
2023/08/24 00:52:21;;;;;;;;;22.50;21.50;;;;;24.60;43.82;101051.63;110027;1266;21889;-81
2023/08/24 00:54:47;;;;;;;;;22.50;20.00;;;;;24.58;43.85;101042.66;110019;1259;19864;-81
2023/08/24 00:57:13;;;;;;;;;20.00;20.00;;;;;24.57;43.87;101036.36;110028;1251;20897;-80
2023/08/24 00:59:39;;;;;;;;;24.00;23.00;;;;;24.52;44.06;101029.58;110031;1266;20198;-81
2023/08/24 01:02:06;;;;;;;;;26.50;25.50;;;;;24.51;43.88;101027.83;110029;1250;22418;-82
2023/08/24 01:04:32;;;;;;;;;34.00;29.00;;;;;24.52;44.08;101036.25;110050;1251;20776;-81
2023/08/24 01:06:58;;;;;;;;;32.00;28.00;;;;;24.50;44.10;101043.67;110045;1265;21501;-80
2023/08/24 01:09:24;;;;;;;;;34.00;32.00;;;;;24.49;43.95;101042.14;110036;1265;20096;-80
2023/08/24 01:11:51;;;;;;;;;36.50;35.00;;;;;24.49;44.16;101041.20;109968;1251;20789;-80
2023/08/24 01:14:17;;;;;;;;;39.00;35.00;;;;;24.47;44.32;101043.64;109976;1266;20312;-81
2023/08/24 01:16:43;;;;;;;;;42.00;38.00;;;;;24.47;44.43;101043.96;109985;1266;19286;-80
2023/08/24 01:19:09;;;;;;;;;38.00;33.00;;;;;24.46;44.54;101051.43;109972;1266;20110;-80
2023/08/24 01:21:35;;;;;;;;;37.00;32.00;;;;;24.44;44.65;101052.92;109980;1266;23262;-80
2023/08/24 01:24:01;;;;;;;;;34.00;32.00;;;;;24.46;44.72;101055.20;109996;1250;19790;-80
2023/08/24 01:26:28;;;;;;;;;42.00;38.00;;;;;24.45;44.86;101056.90;109990;1250;20847;-80
2023/08/24 01:28:54;;;;;;;;;36.00;32.00;;;;;24.45;44.95;101062.16;109988;1266;21473;-80
2023/08/24 01:31:20;;;;;;;;;30.00;29.00;;;;;24.44;44.96;101062.13;109981;1251;20063;-81
2023/08/24 01:33:46;;;;;;;;;31.00;25.00;;;;;24.43;45.21;101054.35;109976;1265;19460;-81
2023/08/24 01:36:12;;;;;;;;;28.00;25.00;;;;;24.40;45.21;101049.58;109958;1259;21683;-81
2023/08/24 01:38:38;;;;;;;;;24.00;23.00;;;;;24.39;45.45;101050.34;109955;1266;19234;-81
2023/08/24 01:41:05;;;;;;;;;25.00;23.00;;;;;24.40;45.47;101055.48;110013;1250;21069;-82
2023/08/24 01:43:33;;;;;;;;;24.00;23.00;;;;;24.39;45.49;101056.09;109993;1266;20215;-81
2023/08/24 01:45:59;;;;;;;;;22.50;20.00;;;;;24.40;45.61;101055.27;109980;1251;19979;-80
2023/08/24 01:48:25;;;;;;;;;19.50;19.00;;;;;24.40;45.36;101059.37;110005;1265;19453;-80
2023/08/24 01:50:51;;;;;;;;;19.00;16.50;;;;;24.37;45.59;101057.54;109957;1258;22301;-82
2023/08/24 01:53:18;;;;;;;;;19.00;18.50;;;;;24.36;45.50;101055.46;110032;1260;19935;-81
2023/08/24 01:55:44;;;;;;;;;18.00;18.00;;;;;24.36;45.54;101054.36;109993;1251;20960;-79
2023/08/24 01:58:10;;;;;;;;;21.00;20.00;;;;;24.35;45.67;101056.89;109966;1266;23692;-80
2023/08/24 02:00:36;;;;;;;;;20.50;20.00;;;;;24.37;45.58;101056.05;109972;1251;22502;-79
2023/08/24 02:03:02;;;;;;;;;18.00;18.00;;;;;24.35;45.59;101052.39;109922;1265;20549;-79
2023/08/24 02:05:29;;;;;;;;;19.00;19.00;;;;;24.34;45.57;101057.67;110023;1251;21538;-82
2023/08/24 02:07:55;;;;;;;;;18.00;18.00;;;;;24.32;45.73;101056.69;109976;1266;19272;-80
2023/08/24 02:10:21;;;;;;;;;21.50;19.50;;;;;24.32;45.84;101055.33;110009;1265;19215;-80
2023/08/24 02:12:47;;;;;;;;;19.00;18.00;;;;;24.30;45.83;101056.06;109991;1266;21405;-81
2023/08/24 02:15:13;;;;;;;;;20.00;19.50;;;;;24.30;45.72;101052.16;109982;1265;19143;-80
2023/08/24 02:17:39;;;;;;;;;19.00;18.00;;;;;24.29;45.88;101051.35;109976;1251;19399;-80
2023/08/24 02:20:05;;;;;;;;;23.00;20.00;;;;;24.28;45.99;101044.90;109984;1260;21533;-80
2023/08/24 02:22:31;;;;;;;;;20.00;19.00;;;;;24.28;46.12;101043.58;109969;1251;20069;-80
2023/08/24 02:24:57;;;;;;;;;19.00;19.00;;;;;24.28;45.80;101044.74;109919;1266;23135;-81
2023/08/24 02:27:23;;;;;;;;;22.00;21.00;;;;;24.28;46.07;101046.27;109955;1251;19966;-80
2023/08/24 02:29:49;;;;;;;;;18.00;18.00;;;;;24.27;46.09;101044.03;109980;1266;19376;-81
2023/08/24 02:32:15;;;;;;;;;21.00;18.00;;;;;24.27;45.89;101041.02;109950;1250;20606;-82
2023/08/24 02:34:42;;;;;;;;;19.00;18.50;;;;;24.27;46.11;101045.23;109949;1251;21590;-82
2023/08/24 02:37:08;;;;;;;;;21.00;20.00;;;;;24.24;46.16;101041.89;109965;1266;22978;-82
2023/08/24 02:39:34;;;;;;;;;21.00;21.00;;;;;24.25;46.07;101041.34;109999;1250;22455;-81
2023/08/24 02:42:00;;;;;;;;;19.67;18.00;;;;;24.23;46.27;101041.90;110003;1251;23139;-83
2023/08/24 02:44:26;;;;;;;;;20.00;20.00;;;;;24.20;46.46;101038.80;109993;1265;19505;-80
2023/08/24 02:46:52;;;;;;;;;22.50;22.50;;;;;24.18;46.72;101044.78;109925;1266;20546;-80
2023/08/24 02:49:18;;;;;;;;;19.00;18.50;;;;;24.17;46.63;101043.91;109941;1265;24967;-80
2023/08/24 02:51:44;;;;;;;;;22.00;22.00;;;;;24.16;46.61;101041.80;109928;1265;20837;-80
2023/08/24 02:54:10;;;;;;;;;20.50;20.50;;;;;24.14;46.76;101041.04;109924;1265;23766;-82
2023/08/24 02:56:36;;;;;;;;;20.00;19.00;;;;;24.13;46.78;101045.05;109943;1266;22170;-81
2023/08/24 02:59:02;;;;;;;;;19.00;18.00;;;;;24.12;46.98;101047.74;110025;1251;22991;-81
2023/08/24 03:01:29;;;;;;;;;19.00;18.00;;;;;24.11;47.02;101050.38;109994;1266;22898;-82
2023/08/24 03:03:55;;;;;;;;;22.00;20.00;;;;;24.10;47.14;101056.62;109984;1266;22190;-84
2023/08/24 03:06:21;;;;;;;;;22.00;19.00;;;;;24.08;47.07;101055.10;110019;1266;19295;-81
2023/08/24 03:08:47;;;;;;;;;21.50;19.00;;;;;24.06;47.07;101056.38;109994;1260;19468;-82
2023/08/24 03:11:13;;;;;;;;;23.00;21.00;;;;;24.05;47.29;101051.89;109995;1250;20096;-82
2023/08/24 03:13:39;;;;;;;;;22.50;19.50;;;;;24.03;47.34;101048.63;109924;1250;22160;-81
2023/08/24 03:16:05;;;;;;;;;22.50;21.00;;;;;24.02;47.51;101043.27;109961;1250;19625;-81
2023/08/24 03:18:31;;;;;;;;;22.00;19.00;;;;;24.01;47.61;101044.92;109963;1251;20194;-81
2023/08/24 03:20:57;;;;;;;;;20.50;20.00;;;;;24.02;47.74;101047.20;109983;1265;23020;-81
2023/08/24 03:23:23;;;;;;;;;22.00;18.00;;;;;24.02;47.46;101045.84;109984;1265;20663;-81
2023/08/24 03:25:49;;;;;;;;;22.00;21.00;;;;;24.01;47.71;101048.04;110005;1265;23112;-79
2023/08/24 03:28:15;;;;;;;;;21.00;21.00;;;;;24.01;47.66;101049.48;109977;1261;22239;-81
2023/08/24 03:30:41;;;;;;;;;21.50;21.00;;;;;24.00;47.83;101048.38;109944;1258;21947;-80
2023/08/24 03:33:07;;;;;;;;;19.00;18.00;;;;;24.00;48.00;101045.70;109914;1251;21306;-80
2023/08/24 03:35:33;;;;;;;;;22.00;22.00;;;;;24.00;48.14;101050.19;109933;1251;19779;-80
2023/08/24 03:37:59;;;;;;;;;18.00;18.00;;;;;23.97;47.90;101053.70;109941;1265;23112;-80
2023/08/24 03:40:25;;;;;;;;;22.00;21.00;;;;;23.96;48.08;101056.07;109961;1265;19888;-80
2023/08/24 03:42:51;;;;;;;;;21.00;19.00;;;;;23.93;48.17;101057.67;109902;1260;21044;-81
2023/08/24 03:45:17;;;;;;;;;19.00;18.50;;;;;23.93;48.06;101062.60;109957;1266;20911;-80
2023/08/24 03:47:43;;;;;;;;;21.00;21.00;;;;;23.91;48.20;101059.77;109966;1260;21555;-80
2023/08/24 03:50:09;;;;;;;;;21.00;19.00;;;;;23.93;48.30;101060.19;109955;1266;19328;-79
2023/08/24 03:52:35;;;;;;;;;21.00;19.00;;;;;23.93;48.14;101061.28;109980;1266;19451;-80
2023/08/24 03:55:01;;;;;;;;;18.50;18.50;;;;;23.92;48.30;101057.62;109951;1266;20090;-80
2023/08/24 03:57:27;;;;;;;;;25.00;23.00;;;;;23.93;48.27;101057.67;110009;1266;19279;-81
2023/08/24 03:59:53;;;;;;;;;21.00;19.00;;;;;23.91;48.12;101059.92;109942;1266;19435;-79
2023/08/24 04:02:19;;;;;;;;;18.00;17.00;;;;;23.89;48.18;101057.64;109962;1258;21439;-80
2023/08/24 04:04:45;;;;;;;;;18.00;18.00;;;;;23.87;48.55;101052.29;109993;1250;20044;-80
2023/08/24 04:07:11;;;;;;;;;19.00;17.50;;;;;23.86;48.42;101051.98;110010;1265;23540;-81
2023/08/24 04:09:37;;;;;;;;;19.00;18.00;;;;;23.88;48.51;101057.33;110083;1251;23183;-82
2023/08/24 04:12:03;;;;;;;;;21.00;18.50;;;;;23.89;48.41;101054.91;110034;1265;19360;-81
2023/08/24 04:14:29;;;;;;;;;23.67;20.67;;;;;23.86;48.51;101054.27;110007;1266;20740;-81
2023/08/24 04:16:55;;;;;;;;;21.00;19.00;;;;;23.84;48.49;101057.52;110017;1251;22893;-81
2023/08/24 04:19:22;;;;;;;;;18.00;17.00;;;;;23.83;48.47;101056.37;110029;1250;20017;-78
2023/08/24 04:21:48;;;;;;;;;21.50;18.00;;;;;23.83;48.62;101059.44;109964;1260;23767;-80
2023/08/24 04:24:14;;;;;;;;;19.00;17.50;;;;;23.85;48.68;101058.06;109935;1251;24141;-79
2023/08/24 04:26:40;;;;;;;;;17.50;17.50;;;;;23.83;48.74;101061.02;109960;1266;19241;-80
2023/08/24 04:29:06;;;;;;;;;19.00;17.50;;;;;23.84;48.91;101059.27;109965;1265;20826;-80
2023/08/24 04:31:32;;;;;;;;;19.00;19.00;;;;;23.85;48.82;101055.54;110008;1259;21553;-81
2023/08/24 04:33:58;;;;;;;;;24.00;23.00;;;;;23.67;49.65;101057.92;109977;1259;23080;-80
2023/08/24 04:36:24;;;;;;;;;22.33;21.67;;;;;23.34;51.11;101059.39;109954;1260;20952;-81
2023/08/24 04:38:50;;;;;;;;;21.00;21.00;;;;;23.18;51.83;101058.73;109928;1266;21405;-81
2023/08/24 04:41:16;;;;;;;;;23.00;21.50;;;;;23.08;52.39;101058.83;109973;1265;19980;-81
2023/08/24 04:43:42;;;;;;;;;21.00;20.00;;;;;23.09;52.40;101063.48;109942;1252;20559;-81
2023/08/24 04:46:08;;;;;;;;;22.50;21.50;;;;;23.04;52.41;101062.17;109947;1251;21284;-81
2023/08/24 04:48:34;;;;;;;;;20.00;18.00;;;;;22.97;52.89;101064.16;109940;1265;23829;-77
2023/08/24 04:51:00;;;;;;;;;21.50;21.00;;;;;23.13;52.32;101061.65;109956;1250;19608;-78
2023/08/24 04:53:27;;;;;;;;;21.50;21.50;;;;;23.27;52.08;101059.36;109989;1265;22014;-77
2023/08/24 04:55:53;;;;;;;;;21.00;20.00;;;;;23.38;52.00;101063.42;109987;1251;19964;-76
2023/08/24 04:58:19;;;;;;;;;21.00;21.00;;;;;23.35;52.65;101072.50;109963;1265;20887;-77
2023/08/24 05:00:45;;;;;;;;;20.50;20.00;;;;;23.35;52.19;101074.20;109987;1253;22974;-78
2023/08/24 05:03:11;;;;;;;;;18.50;17.00;;;;;23.41;51.86;101075.27;109991;1265;23604;-76
2023/08/24 05:05:37;;;;;;;;;20.00;18.00;;;;;23.48;52.02;101074.86;110000;1252;20862;-76
2023/08/24 05:08:03;;;;;;;;;17.00;15.00;;;;;23.74;51.45;101076.28;109979;1252;24561;-76
2023/08/24 05:10:29;;;;;;;;;17.00;16.00;;;;;23.93;51.07;101072.94;110002;1265;20687;-74
2023/08/24 05:12:55;;;;;;;;;14.00;14.00;;;;;24.08;51.26;101074.70;109969;1265;21689;-75
2023/08/24 05:15:21;;;;;;;;;95.50;67.00;;;;;24.21;51.22;101073.89;110005;1260;23058;-73
2023/08/24 05:17:47;;;;;;;;;277.00;209.00;;;;;24.35;51.19;101071.35;110005;1251;19795;-76
2023/08/24 05:20:13;;;;;;;;;291.00;206.50;;;;;24.37;50.95;101076.14;109980;1265;19744;-79
2023/08/24 05:22:39;;;;;;;;;261.00;186.00;;;;;24.42;50.73;101079.45;110052;1266;23166;-80
2023/08/24 05:25:05;;;;;;;;;128.00;99.67;;;;;24.49;50.46;101083.60;110041;1250;23166;-85
2023/08/24 05:27:31;;;;;;;;;75.00;58.00;;;;;24.47;50.11;101085.05;110017;1266;22757;-80
2023/08/24 05:29:57;;;;;;;;;78.50;57.00;;;;;24.45;50.03;101090.05;109987;1251;21219;-79
2023/08/24 05:32:23;;;;;;;;;54.00;44.00;;;;;24.46;49.95;101089.20;110069;1251;20062;-86
2023/08/24 05:34:50;;;;;;;;;54.00;43.00;;;;;24.47;49.86;101087.61;110094;1265;19469;-82
2023/08/24 05:37:16;;;;;;;;;47.50;38.50;;;;;24.44;49.72;101089.39;110028;1265;21629;-81
2023/08/24 05:39:42;;;;;;;;;31.00;27.50;;;;;24.36;50.32;101090.66;109968;1259;19844;-83
2023/08/24 05:42:08;;;;;;;;;28.00;27.00;;;;;24.38;50.07;101090.38;109939;1250;20922;-82
2023/08/24 05:44:34;;;;;;;;;24.00;23.50;;;;;24.33;50.12;101090.38;110029;1250;21649;-82
2023/08/24 05:47:00;;;;;;;;;23.50;21.50;;;;;24.35;49.85;101087.66;110043;1250;20148;-83
2023/08/24 05:49:26;;;;;;;;;23.00;22.00;;;;;24.32;49.83;101087.30;109989;1251;21110;-80
2023/08/24 05:51:52;;;;;;;;;22.00;21.00;;;;;24.25;49.94;101095.10;109954;1250;21536;-84
2023/08/24 05:54:18;;;;;;;;;24.50;22.00;;;;;24.26;50.00;101092.33;110010;1265;19150;-84
2023/08/24 05:56:45;;;;;;;;;19.00;18.00;;;;;24.28;49.96;101089.58;110017;1250;19402;-82
2023/08/24 05:59:11;;;;;;;;;19.00;19.00;;;;;24.21;50.29;101094.42;109986;1265;20423;-83
2023/08/24 06:01:38;;;;;;;;;17.00;17.00;;;;;24.28;50.13;101098.06;110013;1260;20334;-82
2023/08/24 06:04:04;;;;;;;;;21.00;19.00;;;;;24.29;50.20;101098.77;109996;1266;22855;-81
2023/08/24 06:06:31;;;;;;;;;18.50;17.50;;;;;24.32;50.07;101101.27;110047;1266;20324;-82
2023/08/24 06:08:57;;;;;;;;;21.50;21.00;;;;;24.31;50.11;101104.23;110069;1265;20550;-82
2023/08/24 06:11:23;;;;;;;;;21.00;21.00;;;;;24.36;50.00;101107.92;110087;1250;22050;-79
2023/08/24 06:13:49;;;;;;;;;21.00;19.00;;;;;24.28;50.37;101112.46;110020;1250;22808;-81
2023/08/24 06:16:15;;;;;;;;;21.00;19.00;;;;;24.25;50.56;101114.11;110047;1250;21191;-81
2023/08/24 06:18:41;;;;;;;;;22.00;21.00;;;;;24.27;50.37;101108.03;110025;1265;20988;-80
2023/08/24 06:21:08;;;;;;;;;20.00;18.50;;;;;24.29;50.51;101105.56;109991;1250;19891;-79
2023/08/24 06:23:34;;;;;;;;;22.00;21.00;;;;;24.29;50.44;101106.11;109981;1250;21249;-82
2023/08/24 06:26:01;;;;;;;;;20.00;19.00;;;;;24.03;51.00;101109.48;109992;1266;21874;-82
2023/08/24 06:28:27;;;;;;;;;19.33;18.00;;;;;23.81;51.46;101109.84;109959;1251;22818;-74
2023/08/24 06:30:53;;;;;;;;;20.00;18.00;;;;;23.64;52.00;101116.27;110017;1250;19268;-77
2023/08/24 06:33:19;;;;;;;;;19.00;18.00;;;;;23.54;52.23;101114.66;109976;1266;19467;-74
2023/08/24 06:35:45;;;;;;;;;21.00;20.50;;;;;23.41;52.59;101119.45;109976;1251;23125;-75
2023/08/24 06:38:11;;;;;;;;;20.00;19.00;;;;;23.46;52.59;101118.61;110005;1259;20448;-74
2023/08/24 06:40:37;;;;;;;;;17.67;17.00;;;;;23.48;52.66;101115.86;109982;1266;19565;-75
2023/08/24 06:43:04;;;;;;;;;17.00;17.00;;;;;23.51;52.10;101118.27;110039;1265;20091;-74
2023/08/24 06:45:30;;;;;;;;;18.00;17.00;;;;;23.51;51.66;101113.73;110024;1251;21202;-76
2023/08/24 06:47:56;;;;;;;;;16.00;16.00;;;;;23.53;51.33;101112.46;109994;1250;23679;-76
2023/08/24 06:50:22;;;;;;;;;18.00;17.00;;;;;23.62;51.53;101110.80;110000;1251;22835;-83
2023/08/24 06:52:48;;;;;;;;;;;;;;;23.66;51.71;101107.89;110013;1266;19367;-81
2023/08/24 06:55:14;;;;;;;;;17.00;17.00;;;;;23.62;52.04;101108.95;109989;1266;20294;-85
2023/08/24 06:57:41;;;;;;;;;17.00;16.50;;;;;23.68;52.38;101108.04;109990;1260;20339;-83
2023/08/24 07:00:08;;;;;;;;;20.00;18.00;;;;;23.77;52.20;101100.44;109997;1259;22802;-82
2023/08/24 07:02:34;;;;;;;;;14.50;14.50;;;;;23.83;51.92;101103.36;110025;1265;19648;-80
2023/08/24 07:05:01;;;;;;;;;18.00;16.00;;;;;23.79;51.10;101100.98;110000;1266;20124;-84
2023/08/24 07:07:27;;;;;;;;;;;;;;;23.84;50.42;101104.95;109998;1266;22217;-82
2023/08/24 07:09:53;;;;;;;;;11.00;11.00;;;;;23.80;50.16;101108.14;110041;1259;19914;-81
2023/08/24 07:12:19;;;;;;;;;15.50;14.00;;;;;23.82;50.16;101107.59;110004;1251;22957;-79
2023/08/24 07:14:45;;;;;;;;;18.00;14.00;;;;;23.87;50.31;101109.74;109999;1260;19845;-81
2023/08/24 07:17:11;;;;;;;;;15.00;13.00;;;;;23.95;50.84;101111.17;110003;1261;21023;-74
2023/08/24 07:19:37;;;;;;;;;14.00;13.00;;;;;24.00;50.40;101109.02;110001;1251;21561;-74
2023/08/24 07:22:03;;;;;;;;;14.00;14.00;;;;;23.98;49.56;101115.27;109986;1265;23733;-75
2023/08/24 07:24:30;;;;;;;;;14.00;13.00;;;;;24.00;49.04;101113.77;109984;1250;19672;-86
2023/08/24 07:26:56;;;;;;;;;14.00;13.00;;;;;24.04;48.60;101113.69;110012;1259;20289;-85
2023/08/24 07:29:22;;;;;;;;;11.00;11.00;;;;;24.14;48.36;101117.35;109959;1251;23509;-81
2023/08/24 07:31:48;;;;;;;;;11.00;11.00;;;;;24.15;48.19;101116.64;109813;1250;205660;-75
2023/08/24 07:34:14;;;;;;;;;11.00;11.00;;;;;24.16;47.49;101114.44;109992;1266;20172;-75
2023/08/24 07:36:40;;;;;;;;;14.00;14.00;;;;;24.18;47.42;101119.84;109993;1265;19219;-76
2023/08/24 07:39:06;;;;;;;;;11.00;11.00;;;;;24.28;47.47;101118.60;110001;1266;19512;-76
2023/08/24 07:41:33;;;;;;;;;11.00;11.00;;;;;24.40;47.27;101117.02;110022;1251;22753;-75
2023/08/24 07:43:59;;;;;;;;;14.00;12.50;;;;;24.48;46.79;101111.76;109967;1259;22367;-78
2023/08/24 07:46:25;;;;;;;;;14.00;14.00;;;;;24.43;46.42;101114.55;110010;1250;20914;-77
2023/08/24 07:48:51;;;;;;;;;17.00;15.00;;;;;24.43;46.99;101109.77;109973;1253;21282;-77
2023/08/24 07:51:17;;;;;;;;;13.00;12.00;;;;;24.43;47.60;101107.75;109964;1251;22011;-76
2023/08/24 07:53:43;;;;;;;;;14.00;14.00;;;;;24.49;47.40;101113.45;109959;1265;19578;-76
2023/08/24 07:56:09;;;;;;;;;11.00;11.00;;;;;24.53;47.30;101114.36;110003;1258;20081;-76
2023/08/24 07:58:35;;;;;;;;;13.00;12.00;;;;;24.53;47.25;101113.97;109981;1265;19250;-76
2023/08/24 08:01:01;;;;;;;;;11.00;11.00;;;;;24.52;46.71;101115.02;109974;1265;21676;-76
2023/08/24 08:03:27;;;;;;;;;11.00;11.00;;;;;24.42;46.99;101114.99;109987;1265;20574;-76
2023/08/24 08:05:54;;;;;;;;;10.00;10.00;;;;;24.45;46.76;101111.95;110013;1251;19967;-77
2023/08/24 08:08:20;;;;;;;;;10.00;9.50;;;;;24.47;45.85;101110.55;109977;1251;23612;-76
2023/08/24 08:10:47;;;;;;;;;7.00;7.00;;;;;24.55;45.12;101112.85;110021;1265;21626;-77
2023/08/24 08:13:13;;;;;;;;;9.00;9.00;;;;;24.61;44.90;101114.77;109943;1253;19943;-78
2023/08/24 08:15:39;;;;;;;;;9.00;9.00;;;;;24.62;44.72;101117.61;110017;1265;19357;-76
2023/08/24 08:18:05;;;;;;;;;8.00;8.00;;;;;24.71;44.42;101118.80;110005;1265;20150;-76
2023/08/24 08:20:31;;;;;;;;;6.00;6.00;;;;;24.75;44.16;101122.77;110040;1251;19651;-77
2023/08/24 08:22:57;;;;;;;;;6.00;6.00;;;;;24.75;43.53;101123.64;110002;1265;19469;-76
2023/08/24 08:25:23;;;;;;;;;7.00;7.00;;;;;24.75;43.80;101126.21;109984;1266;23240;-76
2023/08/24 08:27:49;;;;;;;;;7.00;7.00;;;;;24.75;43.63;101122.54;110008;1266;19353;-76
2023/08/24 08:30:15;;;;;;;;;8.00;7.00;;;;;24.74;43.10;101121.30;110047;1266;19467;-76
2023/08/24 08:32:41;;;;;;;;;6.00;6.00;;;;;24.72;43.52;101123.38;110034;1260;21725;-76
2023/08/24 08:35:07;;;;;;;;;7.00;6.50;;;;;24.74;43.91;101123.64;109996;1251;19660;-76
2023/08/24 08:37:33;;;;;;;;;7.33;6.00;;;;;24.79;43.68;101124.42;109949;1250;20804;-77
2023/08/24 08:39:59;;;;;;;;;6.00;6.00;;;;;24.78;43.94;101124.38;109946;1259;21304;-77
2023/08/24 08:42:25;;;;;;;;;6.00;6.00;;;;;24.80;43.91;101125.51;109928;1251;19587;-77
2023/08/24 08:44:53;;;;;;;;;5.50;5.50;;;;;24.84;43.31;101125.86;109949;1265;20730;-77
2023/08/24 08:47:19;;;;;;;;;6.00;6.00;;;;;24.76;43.01;101123.63;109977;1251;22915;-85
2023/08/24 08:49:45;;;;;;;;;5.00;5.00;;;;;24.83;42.93;101122.40;109991;1250;19130;-77
2023/08/24 08:52:12;;;;;;;;;6.00;6.00;;;;;24.89;43.07;101121.04;109957;1250;21979;-78
2023/08/24 08:54:38;;;;;;;;;6.00;6.00;;;;;24.95;42.75;101117.10;109994;1260;20799;-82
2023/08/24 08:57:04;;;;;;;;;6.00;6.00;;;;;24.96;42.98;101121.80;110063;1250;20628;-80
2023/08/24 08:59:30;;;;;;;;;6.50;6.50;;;;;24.99;42.78;101121.96;110029;1266;19362;-79
2023/08/24 09:01:56;;;;;;;;;7.00;6.00;;;;;25.00;42.80;101123.31;109974;1265;23529;-81
2023/08/24 09:04:22;;;;;;;;;7.00;6.50;;;;;24.98;42.52;101127.61;109973;1265;19185;-78
2023/08/24 09:06:48;;;;;;;;;6.00;6.00;;;;;24.97;42.69;101127.56;110029;1265;20688;-77
2023/08/24 09:09:14;;;;;;;;;5.00;5.00;;;;;24.86;42.08;101128.79;109993;1265;20097;-77
2023/08/24 09:11:42;;;;;;;;;5.00;5.00;;;;;24.94;41.78;101128.84;109950;1265;19435;-77
2023/08/24 09:14:08;;;;;;;;;6.00;6.00;;;;;24.94;41.66;101128.12;109964;1266;23577;-77
2023/08/24 09:16:34;;;;;;;;;6.00;6.00;;;;;24.96;41.44;101124.16;109969;1265;22364;-76
2023/08/24 09:19:00;;;;;;;;;7.00;6.00;;;;;24.97;41.46;101121.69;109974;1260;19288;-78
2023/08/24 09:21:26;;;;;;;;;6.00;6.00;;;;;24.98;41.86;101126.95;110037;1261;21937;-80
2023/08/24 09:23:52;;;;;;;;;6.00;6.00;;;;;24.99;42.24;101125.73;110020;1266;20179;-76
2023/08/24 09:26:18;;;;;;;;;8.00;7.00;;;;;24.99;42.43;101121.30;110006;1251;19654;-75
2023/08/24 09:28:44;;;;;;;;;5.00;5.00;;;;;24.99;42.52;101117.61;109967;1266;19368;-76
2023/08/24 09:31:10;;;;;;;;;7.00;6.00;;;;;25.02;43.20;101115.79;109969;1266;21569;-76
2023/08/24 09:33:36;;;;;;;;;7.00;6.00;;;;;25.12;43.10;101117.48;109962;1250;19699;-77
2023/08/24 09:36:04;;;;;;;;;6.00;6.00;;;;;25.17;42.33;101114.64;109939;1265;19310;-77
2023/08/24 09:38:30;;;;;;;;;5.00;5.00;;;;;25.22;42.05;101117.00;109972;1259;20126;-77
2023/08/24 09:40:56;;;;;;;;;7.00;6.50;;;;;25.18;41.69;101114.35;109976;1266;19240;-76
2023/08/24 09:43:22;;;;;;;;;6.00;5.00;;;;;25.17;42.09;101106.36;109937;1265;22432;-75
2023/08/24 09:45:48;;;;;;;;;9.00;6.00;;;;;25.12;42.30;101105.21;109990;1250;21573;-76
2023/08/24 09:48:14;;;;;;;;;7.00;6.00;;;;;25.08;42.58;101103.83;109949;1251;23131;-76
2023/08/24 09:50:40;;;;;;;;;6.00;6.00;;;;;25.04;42.70;101103.16;109973;1250;23444;-77
2023/08/24 09:53:06;;;;;;;;;9.00;7.00;;;;;25.05;42.86;101102.65;110015;1251;22774;-77
2023/08/24 09:55:32;;;;;;;;;7.00;7.00;;;;;25.05;42.99;101102.71;110032;1265;22492;-76
2023/08/24 09:58:00;;;;;;;;;6.50;6.00;;;;;24.99;43.56;101098.16;109995;1251;20544;-77
2023/08/24 10:00:26;;;;;;;;;6.00;6.00;;;;;25.00;43.88;101102.10;109994;1266;21591;-76
2023/08/24 10:02:53;;;;;;;;;7.00;6.50;;;;;25.01;44.02;101099.02;110026;1250;19433;-76
2023/08/24 10:05:20;;;;;;;;;6.00;6.00;;;;;24.98;43.78;101099.20;110080;1260;20615;-76
2023/08/24 10:07:46;;;;;;;;;6.00;6.00;;;;;24.98;43.21;101098.11;110083;1251;21581;-76
2023/08/24 10:10:13;;;;;;;;;5.50;5.50;;;;;24.96;43.07;101102.29;110012;1251;19642;-76
2023/08/24 10:12:40;;;;;;;;;6.00;6.00;;;;;25.04;42.45;101100.58;110034;1250;22085;-76
2023/08/24 10:15:06;;;;;;;;;6.00;6.00;;;;;25.07;42.29;101097.80;109975;1251;21483;-76
2023/08/24 10:17:33;;;;;;;;;6.00;5.00;;;;;25.13;42.31;101092.63;109985;1250;20312;-76
2023/08/24 10:20:00;;;;;;;;;5.00;5.00;;;;;25.14;42.26;101093.29;109972;1265;20886;-75
2023/08/24 10:22:27;;;;;;;;;5.00;5.00;;;;;25.26;41.76;101090.02;109981;1265;20048;-75
2023/08/24 10:24:53;;;;;;;;;5.00;5.00;;;;;25.30;41.67;101091.58;109969;1251;19673;-76
2023/08/24 10:27:19;;;;;;;;;5.00;5.00;;;;;25.39;41.48;101089.80;110001;1260;20749;-76
2023/08/24 10:29:45;;;;;;;;;5.00;5.00;;;;;25.46;41.44;101086.38;110033;1265;21595;-76
2023/08/24 10:32:11;;;;;;;;;5.00;5.00;;;;;25.46;40.83;101081.54;110030;1250;19368;-76
2023/08/24 10:34:37;;;;;;;;;7.00;7.00;;;;;25.56;40.73;101075.83;109997;1253;22405;-76
2023/08/24 10:37:03;;;;;;;;;5.00;5.00;;;;;25.69;40.76;101071.89;109954;1250;21638;-76
2023/08/24 10:39:29;;;;;;;;;6.00;6.00;;;;;25.71;40.75;101072.47;109964;1265;19586;-76
2023/08/24 10:41:56;;;;;;;;;5.00;5.00;;;;;25.76;40.54;101067.91;109996;1251;20984;-75
2023/08/24 10:44:22;;;;;;;;;6.00;6.00;;;;;25.66;40.48;101063.75;109985;1266;20193;-75
2023/08/24 10:46:48;;;;;;;;;6.00;6.00;;;;;25.69;40.18;101067.40;109984;1265;20741;-81
2023/08/24 10:49:14;;;;;;;;;6.00;5.00;;;;;25.71;40.06;101062.59;109994;1250;22015;-76
2023/08/24 10:51:40;;;;;;;;;8.00;7.00;;;;;25.78;39.97;101061.66;109989;1250;21303;-76
2023/08/24 10:54:07;;;;;;;;;5.00;5.00;;;;;25.78;39.83;101059.69;110023;1250;23231;-75
2023/08/24 10:56:33;;;;;;;;;6.00;6.00;;;;;25.82;39.73;101057.88;110030;1266;19477;-76
2023/08/24 10:58:59;;;;;;;;;6.00;6.00;;;;;25.90;39.35;101055.17;110004;1260;21558;-76
2023/08/24 11:01:25;;;;;;;;;6.00;6.00;;;;;26.03;38.58;101049.45;109971;1250;19947;-76